Terminal Aerodrome Forecast
Issued by NWS

Home | Current Version | Previous Version | Text Only | Print | Product List | Glossary On
Versions: 1 2 3 4 5 6 7 8 9 10 11 12 13 14 15 16 17 18
000
FTUS44 KLIX 271243 AAA
TAFMCB
TAF AMD
KMCB 271243Z 2713/2812 22005KT 2SM RA BR SCT006 OVC011
     FM271400 20010KT 6SM SHRA OVC035
     FM280000 21006KT P6SM BKN050=

USA.gov is the U.S. government's official web portal to all federal, state and local government web resources and services.